Time;durP1;ratioP1;P1;durP2;ratioP2;P2;SDS_P1;SDS_P2;PMS_P1;PMS_P2;Temp;Humidity;BMP_temperature;BMP_pressure;BME280_temperature;BME280_humidity;BME280_pressure;Samples;Min_cycle;Max_cycle;Signal;HPM_P1;HPM_P2
2021/11/16 00:01:56;;;;;;;32.38;18.48;;;8.10;99.90;;;;;;5033088;28;20021;-45
2021/11/16 00:04:22;;;;;;;31.15;19.02;;;8.00;99.90;;;;;;5034502;28;20057;-48
2021/11/16 00:06:52;;;;;;;36.67;19.85;;;8.00;99.90;;;;;;5034379;28;20044;-49
2021/11/16 00:09:18;;;;;;;28.10;18.23;;;7.90;99.90;;;;;;5034638;28;20026;-45
2021/11/16 00:11:44;;;;;;;31.02;18.33;;;8.00;99.90;;;;;;5034218;28;20025;-50
2021/11/16 00:14:10;;;;;;;40.83;20.48;;;8.00;99.90;;;;;;5034013;28;20029;-48
2021/11/16 00:16:37;;;;;;;34.97;19.17;;;8.00;99.90;;;;;;5033708;28;20036;-48
2021/11/16 00:19:06;;;;;;;33.33;18.60;;;8.00;99.90;;;;;;5034133;28;20026;-49
2021/11/16 00:21:32;;;;;;;37.53;19.73;;;7.90;99.90;;;;;;5048693;23;20020;-48
2021/11/16 00:23:59;;;;;;;36.53;19.83;;;8.00;99.90;;;;;;5031959;28;20034;-48
2021/11/16 00:26:25;;;;;;;32.38;19.40;;;7.90;99.90;;;;;;5032967;28;20018;-49
2021/11/16 00:28:52;;;;;;;36.13;19.95;;;7.90;99.90;;;;;;5033505;28;20076;-49
2021/11/16 00:31:18;;;;;;;32.72;19.65;;;7.90;99.90;;;;;;5033587;28;20041;-49
2021/11/16 00:33:43;;;;;;;33.92;19.75;;;7.90;99.90;;;;;;5033593;28;20029;-49
2021/11/16 00:36:10;;;;;;;33.45;18.92;;;7.90;99.90;;;;;;5033095;28;20390;-53
2021/11/16 00:38:36;;;;;;;31.83;19.83;;;7.90;99.90;;;;;;5033115;28;20501;-51
2021/11/16 00:41:02;;;;;;;33.13;18.83;;;8.00;99.90;;;;;;5033583;28;20034;-53
2021/11/16 00:43:27;;;;;;;38.42;20.75;;;8.00;99.90;;;;;;5033314;28;20037;-49
2021/11/16 00:45:53;;;;;;;33.78;18.77;;;7.90;99.90;;;;;;5033147;28;20055;-49
2021/11/16 00:48:23;;;;;;;35.88;18.63;;;7.90;99.90;;;;;;5032466;28;20032;-50
2021/11/16 00:50:52;;;;;;;35.13;19.15;;;7.90;99.90;;;;;;5032954;28;20033;-51
2021/11/16 00:53:19;;;;;;;40.85;20.13;;;7.90;99.90;;;;;;5032859;28;20024;-50
2021/11/16 00:55:45;;;;;;;37.05;20.08;;;7.80;99.90;;;;;;5033108;28;20018;-52
2021/11/16 00:58:10;;;;;;;37.92;19.17;;;7.80;99.90;;;;;;5031040;28;20056;-50
2021/11/16 01:00:36;;;;;;;35.88;19.13;;;7.80;99.90;;;;;;5032773;28;20072;-51
2021/11/16 01:03:02;;;;;;;33.58;18.85;;;7.80;99.90;;;;;;5032661;28;20490;-50
2021/11/16 01:05:27;;;;;;;39.30;21.27;;;7.80;99.90;;;;;;5032786;28;20461;-49
2021/11/16 01:07:53;;;;;;;37.22;20.05;;;7.90;99.90;;;;;;5032208;28;20035;-51
2021/11/16 01:10:20;;;;;;;34.85;20.15;;;7.90;99.90;;;;;;5031340;28;20067;-51
2021/11/16 01:12:46;;;;;;;35.95;19.42;;;7.80;99.90;;;;;;5032484;28;20120;-52
2021/11/16 01:15:14;;;;;;;41.20;20.15;;;7.80;99.90;;;;;;5032641;28;20096;-50
2021/11/16 01:17:40;;;;;;;40.63;18.70;;;7.80;99.90;;;;;;5031948;28;20021;-51
2021/11/16 01:20:08;;;;;;;40.75;21.48;;;7.80;99.90;;;;;;5031276;28;20029;-49
2021/11/16 01:22:34;;;;;;;31.75;18.50;;;7.80;99.90;;;;;;5032473;28;20037;-50
2021/11/16 01:24:59;;;;;;;38.58;20.48;;;7.80;99.90;;;;;;5032534;28;20098;-52
2021/11/16 01:27:26;;;;;;;34.55;20.13;;;7.90;99.90;;;;;;5030490;28;20026;-54
2021/11/16 01:29:54;;;;;;;38.30;19.88;;;7.80;99.90;;;;;;5032431;28;20048;-51
2021/11/16 01:32:30;;;;;;;33.47;20.10;;;7.80;99.90;;;;;;5032360;28;20025;-53
2021/11/16 01:34:55;;;;;;;39.00;20.40;;;7.80;99.90;;;;;;5032378;28;20045;-54
2021/11/16 01:37:23;;;;;;;34.83;19.67;;;7.80;99.90;;;;;;5031712;28;20026;-52
2021/11/16 01:39:50;;;;;;;39.92;19.73;;;7.80;99.90;;;;;;5032317;28;20151;-53
2021/11/16 01:42:17;;;;;;;41.30;22.15;;;7.80;99.90;;;;;;5032098;28;20022;-52
2021/11/16 01:44:43;;;;;;;36.95;20.20;;;7.80;99.90;;;;;;5032133;28;20108;-50
2021/11/16 01:47:08;;;;;;;38.60;20.77;;;7.70;99.90;;;;;;5031343;28;20096;-50
2021/11/16 01:49:34;;;;;;;41.60;21.25;;;7.80;99.90;;;;;;5032306;28;20128;-50
2021/11/16 01:52:00;;;;;;;44.30;22.10;;;7.80;99.90;;;;;;5031962;28;20017;-53
2021/11/16 01:54:25;;;;;;;40.38;22.17;;;7.80;99.90;;;;;;5031919;28;20391;-53
2021/11/16 01:56:51;;;;;;;40.20;20.75;;;7.70;99.90;;;;;;5028282;28;20403;-52
2021/11/16 02:01:49;;;;;;;39.17;21.33;;;7.80;99.90;;;;;;5006298;28;20042;-46
2021/11/16 02:04:15;;;;;;;45.05;21.88;;;7.80;99.90;;;;;;5013573;28;20124;-46
2021/11/16 02:06:41;;;;;;;40.50;21.30;;;7.80;99.90;;;;;;5013421;28;20026;-47
2021/11/16 02:09:11;;;;;;;43.50;22.98;;;7.80;99.90;;;;;;5014260;28;20022;-45
2021/11/16 02:11:38;;;;;;;38.92;22.27;;;7.80;99.90;;;;;;5032663;28;20034;-46
2021/11/16 02:16:36;;;;;;;44.17;24.30;;;7.70;99.90;;;;;;5054727;22;20089;-55
2021/11/16 02:19:04;;;;;;;43.42;22.23;;;7.80;99.90;;;;;;5032634;28;20025;-53
2021/11/16 02:21:29;;;;;;;41.40;22.08;;;7.70;99.90;;;;;;5031475;28;20056;-51
2021/11/16 02:23:56;;;;;;;41.05;21.33;;;7.80;99.90;;;;;;5032798;28;20060;-50
2021/11/16 02:26:22;;;;;;;47.38;21.77;;;7.80;99.90;;;;;;5032618;28;20113;-52
2021/11/16 02:28:48;;;;;;;46.55;23.15;;;7.90;99.90;;;;;;5032479;28;20109;-49
2021/11/16 02:31:15;;;;;;;39.65;22.05;;;7.80;99.90;;;;;;5032264;28;20080;-50
2021/11/16 02:33:41;;;;;;;43.55;23.17;;;7.80;99.90;;;;;;5032518;28;20028;-51
2021/11/16 02:36:07;;;;;;;43.53;22.83;;;7.70;99.90;;;;;;5032419;28;20048;-51
2021/11/16 02:38:35;;;;;;;45.38;22.15;;;7.70;99.90;;;;;;5032430;28;20510;-51
2021/11/16 02:41:02;;;;;;;43.53;21.88;;;7.70;99.90;;;;;;5032039;28;20029;-49
2021/11/16 02:43:30;;;;;;;45.67;21.35;;;7.80;99.90;;;;;;5032283;28;20022;-51
2021/11/16 02:45:55;;;;;;;41.85;23.20;;;7.70;99.90;;;;;;5031021;28;20025;-52
2021/11/16 02:48:21;;;;;;;45.92;24.80;;;7.70;99.90;;;;;;5032339;28;20053;-54
2021/11/16 02:50:50;;;;;;;43.60;24.40;;;7.70;99.90;;;;;;5030546;28;20025;-50
2021/11/16 02:53:17;;;;;;;49.70;23.80;;;7.70;99.90;;;;;;5032249;28;20304;-50
2021/11/16 02:55:43;;;;;;;53.35;24.00;;;7.70;99.90;;;;;;5030754;28;20087;-49
2021/11/16 02:58:11;;;;;;;51.08;25.17;;;7.70;99.90;;;;;;5031988;28;20100;-50
2021/11/16 03:00:38;;;;;;;45.50;22.15;;;7.70;99.90;;;;;;5030529;28;20394;-52
2021/11/16 03:03:03;;;;;;;45.22;22.75;;;7.60;99.90;;;;;;5032011;28;20025;-52
2021/11/16 03:05:33;;;;;;;42.90;23.15;;;7.60;99.90;;;;;;5032089;28;20028;-50
2021/11/16 03:08:00;;;;;;;48.95;22.48;;;7.60;99.90;;;;;;5032041;28;20025;-53
2021/11/16 03:10:30;;;;;;;54.72;24.35;;;7.60;99.90;;;;;;5031560;28;20474;-50
2021/11/16 03:12:57;;;;;;;42.97;23.13;;;7.60;99.90;;;;;;5031745;28;20049;-54
2021/11/16 03:15:23;;;;;;;45.30;24.02;;;7.70;99.90;;;;;;5031806;28;20405;-47
2021/11/16 03:17:51;;;;;;;41.80;21.70;;;7.80;99.90;;;;;;5031329;28;20028;-49
2021/11/16 03:20:17;;;;;;;53.92;23.85;;;7.80;99.90;;;;;;5032007;28;20076;-50
2021/11/16 03:22:50;;;;;;;50.72;24.20;;;7.80;99.90;;;;;;5030570;28;20033;-54
2021/11/16 03:25:17;;;;;;;47.08;23.55;;;7.90;99.90;;;;;;5030420;28;20037;-51
2021/11/16 03:27:45;;;;;;;47.80;24.35;;;7.80;99.90;;;;;;5031825;28;20504;-54
2021/11/16 03:30:11;;;;;;;48.03;24.30;;;7.80;99.90;;;;;;5031342;28;20033;-53
2021/11/16 03:32:37;;;;;;;44.80;24.55;;;7.90;99.90;;;;;;5031846;28;20025;-51
2021/11/16 03:35:05;;;;;;;44.90;22.92;;;7.80;99.90;;;;;;5031628;28;20022;-51
2021/11/16 03:37:40;;;;;;;47.90;24.15;;;7.80;99.90;;;;;;5030613;28;20071;-53
2021/11/16 03:40:06;;;;;;;42.38;22.67;;;7.80;99.90;;;;;;5031190;28;20029;-51
2021/11/16 03:42:34;;;;;;;47.03;24.92;;;7.80;99.90;;;;;;5030246;28;20026;-52
2021/11/16 03:45:00;;;;;;;46.42;23.33;;;7.80;99.90;;;;;;5031419;28;20037;-53
2021/11/16 03:47:25;;;;;;;47.88;23.38;;;7.80;99.90;;;;;;5030305;28;20029;-54
2021/11/16 03:49:51;;;;;;;51.58;24.08;;;7.90;99.90;;;;;;5031058;28;20029;-52
2021/11/16 03:52:21;;;;;;;50.58;24.27;;;7.90;99.90;;;;;;5031447;28;20018;-52
2021/11/16 03:54:47;;;;;;;52.30;24.83;;;7.80;99.90;;;;;;5031445;28;20048;-50
2021/11/16 03:57:12;;;;;;;43.63;23.40;;;7.80;99.90;;;;;;5031364;28;20025;-54
2021/11/16 03:59:39;;;;;;;52.25;22.83;;;7.80;99.90;;;;;;5029557;28;20425;-50
2021/11/16 04:02:04;;;;;;;42.88;23.25;;;7.80;99.90;;;;;;5031291;28;20018;-51
2021/11/16 04:04:31;;;;;;;46.42;24.23;;;7.90;99.90;;;;;;5031355;28;20030;-48
2021/11/16 04:06:57;;;;;;;47.35;24.35;;;7.80;99.90;;;;;;5031602;28;20018;-50
2021/11/16 04:09:22;;;;;;;47.47;22.52;;;7.80;99.90;;;;;;5029718;28;20048;-50
2021/11/16 04:11:48;;;;;;;47.33;24.48;;;7.70;99.90;;;;;;5030068;28;20025;-54
2021/11/16 04:14:14;;;;;;;49.55;24.75;;;7.70;99.90;;;;;;5031089;28;20040;-51
2021/11/16 04:16:39;;;;;;;43.75;23.02;;;7.70;99.90;;;;;;5031354;28;20029;-52
2021/11/16 04:19:05;;;;;;;45.80;22.95;;;7.80;99.90;;;;;;5031292;28;20037;-51
2021/11/16 04:21:30;;;;;;;47.08;22.70;;;7.80;99.90;;;;;;5031117;28;20026;-55
2021/11/16 04:23:56;;;;;;;51.45;25.92;;;7.80;99.90;;;;;;5031166;28;20055;-50
2021/11/16 04:26:22;;;;;;;51.58;23.83;;;7.80;99.90;;;;;;5031253;28;20028;-51
2021/11/16 04:28:48;;;;;;;48.13;23.13;;;7.70;99.90;;;;;;5032874;28;20040;-52
2021/11/16 04:31:13;;;;;;;52.17;25.55;;;7.70;99.90;;;;;;5034746;28;20510;-52
2021/11/16 04:33:40;;;;;;;47.28;23.92;;;7.70;99.90;;;;;;5035229;28;20026;-50
2021/11/16 04:36:05;;;;;;;57.08;25.08;;;7.60;99.90;;;;;;5035066;28;20022;-52
2021/11/16 04:38:31;;;;;;;60.42;24.55;;;7.60;99.90;;;;;;5034157;28;20024;-54
2021/11/16 04:40:59;;;;;;;44.47;24.17;;;7.60;99.90;;;;;;5034788;28;20371;-52
2021/11/16 04:43:27;;;;;;;55.58;25.02;;;7.60;99.90;;;;;;5034666;28;20029;-55
2021/11/16 04:45:56;;;;;;;53.53;24.13;;;7.60;99.90;;;;;;5033702;28;20034;-53
2021/11/16 05:04:41;;;;;;;49.50;24.80;;;7.50;99.90;;;;;;5034296;28;20517;-52
2021/11/16 05:07:17;;;;;;;53.03;24.85;;;7.50;99.90;;;;;;5034410;28;20042;-50
2021/11/16 05:09:47;;;;;;;54.75;25.77;;;7.60;99.90;;;;;;5033749;28;20022;-53
2021/11/16 05:12:13;;;;;;;55.90;25.45;;;7.60;99.90;;;;;;5032694;28;20176;-52
2021/11/16 05:14:38;;;;;;;49.08;23.75;;;7.60;99.90;;;;;;5032619;28;20061;-49
2021/11/16 05:17:04;;;;;;;56.78;26.05;;;7.60;99.90;;;;;;5034093;28;20410;-51
2021/11/16 05:19:30;;;;;;;54.95;26.83;;;7.60;99.90;;;;;;5032343;28;20179;-52
2021/11/16 05:21:56;;;;;;;53.17;24.52;;;7.60;99.90;;;;;;5033917;28;20021;-50
2021/11/16 05:24:24;;;;;;;54.33;23.65;;;7.60;99.90;;;;;;5034208;28;20502;-50
2021/11/16 05:26:50;;;;;;;54.22;24.27;;;7.50;99.90;;;;;;5032506;28;20095;-50
2021/11/16 05:29:16;;;;;;;52.28;24.70;;;7.50;99.90;;;;;;5032165;28;20021;-53
2021/11/16 05:31:42;;;;;;;53.83;25.52;;;7.60;99.90;;;;;;5033597;28;20080;-50
2021/11/16 05:34:07;;;;;;;53.00;25.88;;;7.70;99.90;;;;;;5033665;28;20033;-51
2021/11/16 05:36:33;;;;;;;55.10;25.95;;;7.70;99.90;;;;;;5033609;28;20061;-52
2021/11/16 05:38:58;;;;;;;49.45;26.02;;;7.70;99.90;;;;;;5033218;28;20049;-50
2021/11/16 05:41:24;;;;;;;52.28;25.52;;;7.70;99.90;;;;;;5032616;28;20478;-52
2021/11/16 05:43:50;;;;;;;58.53;26.75;;;7.60;99.90;;;;;;5033881;28;20027;-51
2021/11/16 05:46:20;;;;;;;55.00;26.02;;;7.60;99.90;;;;;;5033367;28;20021;-54
2021/11/16 05:48:47;;;;;;;57.75;26.48;;;7.60;99.90;;;;;;5033601;28;20095;-53
2021/11/16 05:51:14;;;;;;;61.47;26.05;;;7.50;99.90;;;;;;5033303;28;20043;-52
2021/11/16 05:53:41;;;;;;;60.60;25.67;;;7.50;99.90;;;;;;5032023;28;20017;-50
2021/11/16 05:56:07;;;;;;;51.70;24.60;;;7.50;99.90;;;;;;5031890;28;20029;-55
2021/11/16 05:58:33;;;;;;;59.55;25.80;;;7.50;99.90;;;;;;5033213;28;20029;-53
2021/11/16 06:00:58;;;;;;;52.53;25.85;;;7.50;99.90;;;;;;5032883;28;20021;-51
2021/11/16 06:03:24;;;;;;;59.15;24.98;;;7.50;99.90;;;;;;5033093;28;20030;-53
2021/11/16 06:05:50;;;;;;;50.33;24.52;;;7.60;99.90;;;;;;5031773;28;20401;-53
2021/11/16 06:08:24;;;;;;;52.30;25.33;;;7.50;99.90;;;;;;5031780;28;20504;-53
2021/11/16 06:10:49;;;;;;;52.17;24.23;;;7.50;99.90;;;;;;5032683;28;20053;-51
2021/11/16 06:13:15;;;;;;;51.53;26.10;;;7.60;99.90;;;;;;5033234;28;20068;-54
2021/11/16 06:15:41;;;;;;;76.13;27.90;;;7.50;99.90;;;;;;5032605;28;20072;-54
2021/11/16 06:18:06;;;;;;;56.88;27.13;;;7.50;99.90;;;;;;5032875;28;20032;-56
2021/11/16 06:20:32;;;;;;;49.08;23.38;;;7.50;99.90;;;;;;5032566;28;20087;-49
2021/11/16 06:22:58;;;;;;;54.72;26.75;;;7.40;99.90;;;;;;5031437;28;20124;-54
2021/11/16 06:25:24;;;;;;;51.38;25.92;;;7.50;99.90;;;;;;5031221;28;20032;-51
2021/11/16 06:27:50;;;;;;;58.08;26.40;;;7.50;99.90;;;;;;5032620;28;20037;-51
2021/11/16 06:30:15;;;;;;;58.10;26.30;;;7.50;99.90;;;;;;5032063;28;20099;-53
2021/11/16 06:32:41;;;;;;;59.92;26.67;;;7.50;99.90;;;;;;5032349;28;20467;-51
2021/11/16 06:35:14;;;;;;;54.45;24.58;;;7.60;99.90;;;;;;5032128;28;20029;-50
2021/11/16 06:37:39;;;;;;;48.92;24.40;;;7.60;99.90;;;;;;5032259;28;20048;-51
2021/11/16 06:40:06;;;;;;;57.05;25.33;;;7.60;99.90;;;;;;5031796;28;20025;-54
2021/11/16 06:42:31;;;;;;;50.67;24.58;;;7.60;99.90;;;;;;5032082;28;20033;-51
2021/11/16 06:44:58;;;;;;;52.63;24.20;;;7.50;99.90;;;;;;5032042;28;20052;-50
2021/11/16 06:47:24;;;;;;;51.80;25.83;;;7.50;99.90;;;;;;5031993;28;20474;-54
2021/11/16 06:49:50;;;;;;;55.83;24.98;;;7.50;99.90;;;;;;5031995;28;20100;-52
2021/11/16 06:52:18;;;;;;;56.22;25.88;;;7.40;99.90;;;;;;5031610;28;20528;-53
2021/11/16 06:54:44;;;;;;;57.97;26.85;;;7.40;99.90;;;;;;5031628;28;20104;-52
2021/11/16 06:57:12;;;;;;;57.65;25.20;;;7.50;99.90;;;;;;5031806;28;20131;-50
2021/11/16 06:59:38;;;;;;;49.55;24.55;;;7.40;99.90;;;;;;5031000;28;20479;-53
2021/11/16 07:02:05;;;;;;;58.88;25.80;;;7.40;99.90;;;;;;5031840;28;20087;-51
2021/11/16 07:04:39;;;;;;;51.97;26.25;;;7.40;99.90;;;;;;5031718;28;20351;-51
2021/11/16 07:07:05;;;;;;;48.85;23.02;;;7.40;99.90;;;;;;5031915;28;20037;-56
2021/11/16 07:09:39;;;;;;;52.42;25.30;;;7.50;99.90;;;;;;5031506;28;20025;-53
2021/11/16 07:12:11;;;;;;;61.35;26.95;;;7.60;99.90;;;;;;5031750;28;20088;-49
2021/11/16 07:14:37;;;;;;;58.83;26.75;;;7.60;99.90;;;;;;5031427;28;20372;-51
2021/11/16 07:17:06;;;;;;;50.60;24.80;;;7.60;99.90;;;;;;5031758;28;20109;-51
2021/11/16 07:19:33;;;;;;;47.20;23.15;;;7.60;99.90;;;;;;5031538;28;20104;-52
2021/11/16 07:22:03;;;;;;;51.72;25.25;;;7.50;99.90;;;;;;5031703;28;20021;-54
2021/11/16 07:24:30;;;;;;;57.90;27.40;;;7.60;99.90;;;;;;5031545;28;20017;-54
2021/11/16 07:27:01;;;;;;;61.80;26.30;;;7.70;99.90;;;;;;5031617;28;20033;-52
2021/11/16 07:29:42;;;;;;;56.97;26.73;;;7.60;99.90;;;;;;5031544;28;20176;-52
2021/11/16 07:32:13;;;;;;;57.33;24.40;;;7.60;99.90;;;;;;5031613;28;20018;-50
2021/11/16 07:34:39;;;;;;;48.40;24.77;;;7.70;99.90;;;;;;5031701;28;20022;-50
2021/11/16 07:37:23;;;;;;;55.72;27.13;;;7.70;99.90;;;;;;5031495;28;20021;-53
2021/11/16 07:39:54;;;;;;;54.17;24.13;;;7.70;99.90;;;;;;5031189;28;20022;-50
2021/11/16 07:42:24;;;;;;;48.83;25.60;;;7.60;99.90;;;;;;5031755;28;20021;-54
2021/11/16 07:45:06;;;;;;;59.28;25.55;;;7.60;99.90;;;;;;5031501;28;20392;-54
2021/11/16 07:47:41;;;;;;;49.28;24.33;;;7.60;99.90;;;;;;5031925;28;20658;-52
2021/11/16 07:50:09;;;;;;;48.83;25.30;;;7.60;99.90;;;;;;5031509;28;20029;-56
2021/11/16 07:52:35;;;;;;;50.20;24.20;;;7.60;99.90;;;;;;5030316;28;20109;-55
2021/11/16 07:55:01;;;;;;;52.55;24.10;;;7.60;99.90;;;;;;5031469;28;20021;-55
2021/11/16 07:57:27;;;;;;;52.60;25.80;;;7.60;99.90;;;;;;5031387;28;20026;-56
2021/11/16 07:59:55;;;;;;;51.85;24.80;;;7.60;99.90;;;;;;5030956;28;20429;-51
2021/11/16 08:02:36;;;;;;;55.53;25.08;;;7.60;99.90;;;;;;5031287;28;20024;-54
2021/11/16 08:05:22;;;;;;;51.70;25.25;;;7.50;99.90;;;;;;5020677;28;20049;-53
2021/11/16 08:08:26;;;;;;;55.38;25.27;;;7.50;99.90;;;;;;5015159;28;20152;-49
2021/11/16 08:11:26;;;;;;;53.40;27.35;;;7.60;99.90;;;;;;5034005;28;20029;-50
2021/11/16 08:14:05;;;;;;;52.22;24.85;;;7.50;99.90;;;;;;5033939;28;20030;-52
2021/11/16 08:16:32;;;;;;;56.67;24.65;;;7.50;99.90;;;;;;5044782;22;20049;-49
2021/11/16 08:19:09;;;;;;;56.63;24.98;;;7.60;99.90;;;;;;5023830;28;20026;-44
2021/11/16 08:21:42;;;;;;;52.55;25.30;;;7.60;99.90;;;;;;5015502;28;20021;-46
2021/11/16 08:24:14;;;;;;;57.05;24.33;;;7.70;99.90;;;;;;5023287;28;20380;-50
2021/11/16 08:26:44;;;;;;;54.45;25.10;;;7.70;99.90;;;;;;5035558;28;20112;-46
2021/11/16 08:29:13;;;;;;;48.40;24.38;;;7.70;99.90;;;;;;5035468;28;20108;-46
2021/11/16 08:31:52;;;;;;;52.92;25.55;;;7.70;99.90;;;;;;5035188;28;20034;-47
2021/11/16 08:34:19;;;;;;;52.85;26.17;;;7.60;99.90;;;;;;5029410;28;20022;-48
2021/11/16 08:36:52;;;;;;;55.90;25.90;;;7.60;99.90;;;;;;5015216;28;20025;-52
2021/11/16 08:39:21;;;;;;;50.90;26.35;;;7.70;99.90;;;;;;5014916;28;20026;-50
2021/11/16 08:41:48;;;;;;;54.53;23.92;;;7.80;99.90;;;;;;5015304;28;20109;-48
2021/11/16 08:44:18;;;;;;;53.63;25.05;;;7.80;99.90;;;;;;5015232;28;20501;-47
2021/11/16 08:46:45;;;;;;;54.20;26.33;;;7.70;99.90;;;;;;5015074;28;20450;-48
2021/11/16 08:49:30;;;;;;;58.65;25.13;;;7.70;99.90;;;;;;5025631;28;20517;-52
2021/11/16 08:51:59;;;;;;;51.90;25.50;;;7.80;99.90;;;;;;5022536;28;20030;-46
2021/11/16 08:54:31;;;;;;;64.28;26.13;;;7.70;99.90;;;;;;5026904;28;20024;-46
2021/11/16 08:57:00;;;;;;;55.95;25.95;;;7.70;99.90;;;;;;5020108;28;20033;-50
2021/11/16 08:59:25;;;;;;;52.95;24.10;;;7.70;99.90;;;;;;5026428;28;20026;-50
2021/11/16 09:02:07;;;;;;;54.40;25.45;;;7.70;99.90;;;;;;5014809;28;20117;-48
2021/11/16 09:04:36;;;;;;;60.97;26.90;;;7.60;99.90;;;;;;5014799;28;20076;-45
2021/11/16 09:07:13;;;;;;;58.17;27.80;;;7.60;99.90;;;;;;5017291;28;20101;-49
2021/11/16 09:10:02;;;;;;;61.05;27.02;;;7.70;99.90;;;;;;5018769;28;20030;-49
2021/11/16 09:12:32;;;;;;;55.60;26.17;;;7.60;99.90;;;;;;5020629;28;20419;-50
2021/11/16 09:14:58;;;;;;;48.00;24.33;;;7.60;99.90;;;;;;5019921;28;20109;-48
2021/11/16 09:17:23;;;;;;;49.25;24.98;;;7.60;99.90;;;;;;5014928;28;20057;-46
2021/11/16 09:19:49;;;;;;;54.78;26.63;;;7.60;99.90;;;;;;5028070;28;20026;-48
2021/11/16 09:22:17;;;;;;;50.03;25.25;;;7.60;99.90;;;;;;5020054;28;20542;-53
2021/11/16 09:24:49;;;;;;;58.05;26.63;;;7.70;99.90;;;;;;5025556;28;20487;-48
2021/11/16 09:30:00;;;;;;;48.53;24.02;;;7.80;99.90;;;;;;5014284;28;20558;-54
2021/11/16 09:32:28;;;;;;;51.70;25.42;;;7.70;99.90;;;;;;5015756;28;20052;-51
2021/11/16 09:34:56;;;;;;;52.33;24.42;;;7.70;99.90;;;;;;5026198;28;20451;-47
2021/11/16 09:37:24;;;;;;;57.10;27.38;;;7.70;99.90;;;;;;5033798;28;20022;-49
2021/11/16 09:39:57;;;;;;;54.55;25.83;;;7.90;99.90;;;;;;5014123;28;20030;-49
2021/11/16 09:42:29;;;;;;;52.65;25.35;;;7.80;99.90;;;;;;5014132;28;20109;-45
2021/11/16 09:44:59;;;;;;;52.80;26.08;;;7.80;99.90;;;;;;5012748;28;20022;-46
2021/11/16 09:47:34;;;;;;;49.33;25.27;;;7.80;99.90;;;;;;5022711;28;20390;-44
2021/11/16 09:50:15;;;;;;;49.15;25.10;;;7.90;99.90;;;;;;5020720;28;20419;-47
2021/11/16 09:52:45;;;;;;;49.97;24.48;;;8.00;99.90;;;;;;5032572;28;20021;-48
2021/11/16 09:55:27;;;;;;;55.88;25.40;;;8.00;99.90;;;;;;5028044;28;20030;-49
2021/11/16 09:58:03;;;;;;;51.08;24.20;;;7.90;99.90;;;;;;5013720;28;20037;-50
2021/11/16 10:00:42;;;;;;;65.00;26.17;;;7.90;99.90;;;;;;5021655;28;20031;-46
2021/11/16 10:03:13;;;;;;;56.28;27.05;;;7.90;99.90;;;;;;5031771;28;20033;-50
2021/11/16 10:05:42;;;;;;;49.00;25.90;;;7.90;99.90;;;;;;5025901;28;20038;-48
2021/11/16 10:08:10;;;;;;;46.60;25.25;;;7.90;99.90;;;;;;5013615;28;20022;-52
2021/11/16 10:10:42;;;;;;;50.30;24.15;;;7.90;99.90;;;;;;5020749;28;20442;-52
2021/11/16 10:13:11;;;;;;;52.65;24.23;;;7.90;99.90;;;;;;5024303;28;20395;-51
2021/11/16 10:15:41;;;;;;;51.70;26.23;;;8.00;99.90;;;;;;5024347;28;20479;-49
2021/11/16 10:18:09;;;;;;;44.03;24.00;;;8.00;99.90;;;;;;5013375;28;20108;-47
2021/11/16 10:20:39;;;;;;;49.88;24.98;;;8.00;99.90;;;;;;5013235;28;20026;-47
2021/11/16 10:23:08;;;;;;;53.88;23.92;;;8.00;99.90;;;;;;5020939;28;20072;-50
2021/11/16 10:25:37;;;;;;;47.20;24.38;;;8.10;99.90;;;;;;5016074;28;20479;-47
2021/11/16 10:28:11;;;;;;;51.92;24.55;;;8.00;99.90;;;;;;5025341;28;20406;-49
2021/11/16 10:30:38;;;;;;;61.28;26.27;;;7.90;99.90;;;;;;5015661;28;20022;-48
2021/11/16 10:33:20;;;;;;;47.03;23.77;;;7.90;99.90;;;;;;5022537;28;20018;-46
2021/11/16 10:35:50;;;;;;;47.00;23.13;;;7.90;99.90;;;;;;5019879;28;20159;-48
2021/11/16 10:38:20;;;;;;;49.20;24.95;;;7.90;99.90;;;;;;5024245;28;20375;-50
2021/11/16 10:40:46;;;;;;;51.90;23.75;;;7.90;99.90;;;;;;5013964;28;20029;-47
2021/11/16 10:43:12;;;;;;;49.88;25.27;;;7.90;99.90;;;;;;5012757;28;20034;-46
2021/11/16 10:45:44;;;;;;;54.10;25.67;;;7.90;99.90;;;;;;5019612;28;20029;-47
2021/11/16 10:48:12;;;;;;;51.28;24.70;;;7.90;99.90;;;;;;5032731;28;20036;-47
2021/11/16 10:50:41;;;;;;;51.97;22.77;;;7.90;99.90;;;;;;5032318;28;20108;-49
2021/11/16 10:53:26;;;;;;;45.55;24.60;;;8.00;99.90;;;;;;5032367;28;20081;-50
2021/11/16 10:55:57;;;;;;;44.13;21.65;;;8.00;99.90;;;;;;5015332;28;20057;-47
2021/11/16 10:58:38;;;;;;;46.13;23.48;;;8.00;99.90;;;;;;5012628;28;20053;-47
2021/11/16 11:01:08;;;;;;;41.35;23.30;;;8.10;99.90;;;;;;5009990;28;20026;-50
2021/11/16 11:03:40;;;;;;;47.85;23.15;;;8.10;99.90;;;;;;5014988;28;20120;-53
2021/11/16 11:06:10;;;;;;;51.53;24.13;;;8.10;99.90;;;;;;5030967;28;20026;-46
2021/11/16 11:08:41;;;;;;;52.78;24.52;;;8.10;99.90;;;;;;5032402;28;20034;-49
2021/11/16 11:11:14;;;;;;;46.85;23.88;;;8.10;99.90;;;;;;5031695;28;20029;-48
2021/11/16 11:13:40;;;;;;;48.38;24.15;;;8.20;99.90;;;;;;5030546;28;20025;-46
2021/11/16 11:16:11;;;;;;;47.03;23.65;;;8.20;99.90;;;;;;5027506;28;20033;-49
2021/11/16 11:18:39;;;;;;;48.08;23.77;;;8.30;99.90;;;;;;5012642;28;20018;-47
2021/11/16 11:21:09;;;;;;;42.72;22.27;;;8.20;99.90;;;;;;5012556;28;20097;-49
2021/11/16 11:23:44;;;;;;;47.15;22.38;;;8.20;99.90;;;;;;5019135;28;20046;-47
2021/11/16 11:26:50;;;;;;;47.67;22.60;;;8.20;99.90;;;;;;5020391;28;20021;-50
2021/11/16 11:29:29;;;;;;;51.47;25.08;;;8.20;99.90;;;;;;5016445;28;20060;-49
2021/11/16 11:32:01;;;;;;;49.10;22.42;;;8.30;99.90;;;;;;5032184;28;20138;-49
2021/11/16 11:34:32;;;;;;;39.63;20.67;;;8.30;99.90;;;;;;5030773;28;20025;-49
2021/11/16 11:37:12;;;;;;;45.45;23.20;;;8.30;99.90;;;;;;5031932;28;20029;-49
2021/11/16 11:39:39;;;;;;;48.55;23.77;;;8.30;99.90;;;;;;5011506;28;20025;-50
2021/11/16 11:42:09;;;;;;;41.53;22.83;;;8.20;99.90;;;;;;5012040;28;20033;-53
2021/11/16 11:44:42;;;;;;;40.38;20.58;;;8.20;99.90;;;;;;5012149;28;20097;-47
2021/11/16 11:47:08;;;;;;;47.25;21.77;;;8.20;99.90;;;;;;5012577;28;20026;-47
2021/11/16 11:49:34;;;;;;;42.28;21.67;;;8.30;99.90;;;;;;5012326;28;20026;-50
2021/11/16 11:52:02;;;;;;;39.20;21.77;;;8.30;99.90;;;;;;5032027;28;20079;-50
2021/11/16 11:54:28;;;;;;;41.00;22.90;;;8.40;99.90;;;;;;5031995;28;20022;-50
2021/11/16 11:56:55;;;;;;;41.75;22.13;;;8.30;99.90;;;;;;5025281;28;20113;-48
2021/11/16 11:59:24;;;;;;;40.10;21.30;;;8.30;99.90;;;;;;5016145;28;20014;-45
2021/11/16 12:01:51;;;;;;;43.35;21.88;;;8.30;99.90;;;;;;5025929;28;20053;-47
2021/11/16 12:04:18;;;;;;;37.58;20.90;;;8.30;99.90;;;;;;5026439;28;20033;-45
2021/11/16 12:06:46;;;;;;;42.75;22.73;;;8.40;99.90;;;;;;5012268;28;20048;-52
2021/11/16 12:09:13;;;;;;;41.08;19.30;;;8.40;99.90;;;;;;5017368;28;20112;-47
2021/11/16 12:11:39;;;;;;;33.80;18.92;;;8.40;99.90;;;;;;5018098;28;20042;-48
2021/11/16 12:14:13;;;;;;;41.13;19.60;;;8.30;99.90;;;;;;5010851;28;20108;-47
2021/11/16 12:17:02;;;;;;;38.53;18.27;;;8.20;99.90;;;;;;5014137;28;20104;-45
2021/11/16 12:19:44;;;;;;;38.78;20.08;;;8.30;99.90;;;;;;5015778;28;20025;-53
2021/11/16 12:22:20;;;;;;;39.75;20.75;;;8.30;99.90;;;;;;5026627;28;20041;-48
2021/11/16 12:24:47;;;;;;;42.88;20.67;;;8.20;99.90;;;;;;5017471;28;20021;-48
2021/11/16 12:27:14;;;;;;;37.00;20.15;;;8.30;99.90;;;;;;5023669;28;20299;-47
2021/11/16 12:29:47;;;;;;;39.78;20.05;;;8.40;99.90;;;;;;5015817;28;20025;-49
2021/11/16 12:32:28;;;;;;;37.00;20.27;;;8.30;99.90;;;;;;5020425;28;20037;-51
2021/11/16 12:35:05;;;;;;;34.03;18.20;;;8.20;99.90;;;;;;5016605;28;20029;-48
2021/11/16 12:37:39;;;;;;;31.55;16.25;;;8.20;99.90;;;;;;5017082;28;20026;-51
2021/11/16 12:40:13;;;;;;;33.47;18.38;;;8.20;99.90;;;;;;5024272;28;20021;-50
2021/11/16 12:42:39;;;;;;;31.60;19.58;;;8.30;99.90;;;;;;5017160;28;20048;-52
2021/11/16 12:45:10;;;;;;;41.13;20.88;;;8.40;99.90;;;;;;5017138;28;20021;-47
2021/11/16 12:47:57;;;;;;;40.80;19.38;;;8.50;99.90;;;;;;5019738;28;20102;-50
2021/11/16 12:50:23;;;;;;;35.65;18.13;;;8.40;99.90;;;;;;5013248;28;20026;-46
2021/11/16 12:52:52;;;;;;;40.30;21.55;;;8.30;99.90;;;;;;5014781;28;20022;-50
2021/11/16 12:55:24;;;;;;;35.35;19.95;;;8.30;99.90;;;;;;5028869;28;20108;-49
2021/11/16 12:57:55;;;;;;;34.15;18.38;;;8.30;99.90;;;;;;5034510;28;20022;-47
2021/11/16 13:00:40;;;;;;;32.67;18.73;;;8.30;99.90;;;;;;5018606;28;20030;-50
2021/11/16 13:03:06;;;;;;;38.08;19.83;;;8.20;99.90;;;;;;5014745;28;20022;-48
2021/11/16 13:05:42;;;;;;;37.08;19.40;;;8.20;99.90;;;;;;5014508;28;20402;-47
2021/11/16 13:08:09;;;;;;;36.63;20.40;;;8.20;99.90;;;;;;5014472;28;20022;-48
2021/11/16 13:10:50;;;;;;;37.90;19.42;;;8.20;99.90;;;;;;5013946;28;20037;-47